sensor_id;sensor_type;location;lat;lon;timestamp;temperature;humidity
24522;DHT22;12680;57.804;12.190;2022-07-23T00:00:30;18.10;98.80
24522;DHT22;12680;57.804;12.190;2022-07-23T00:03:04;18.10;98.80
24522;DHT22;12680;57.804;12.190;2022-07-23T00:05:32;18.10;98.90
24522;DHT22;12680;57.804;12.190;2022-07-23T00:08:02;18.10;98.90
24522;DHT22;12680;57.804;12.190;2022-07-23T00:10:29;18.10;98.90
24522;DHT22;12680;57.804;12.190;2022-07-23T00:12:56;18.00;99.00
24522;DHT22;12680;57.804;12.190;2022-07-23T00:15:24;18.00;98.90
24522;DHT22;12680;57.804;12.190;2022-07-23T00:17:51;17.90;98.90
24522;DHT22;12680;57.804;12.190;2022-07-23T00:20:18;17.80;99.00
24522;DHT22;12680;57.804;12.190;2022-07-23T00:22:54;17.80;99.00
24522;DHT22;12680;57.804;12.190;2022-07-23T00:25:22;17.70;99.20
24522;DHT22;12680;57.804;12.190;2022-07-23T00:27:56;17.70;99.20
24522;DHT22;12680;57.804;12.190;2022-07-23T00:30:24;17.60;99.20
24522;DHT22;12680;57.804;12.190;2022-07-23T00:32:56;17.60;99.30
24522;DHT22;12680;57.804;12.190;2022-07-23T00:35:29;17.60;99.50
24522;DHT22;12680;57.804;12.190;2022-07-23T00:37:57;17.50;99.40
24522;DHT22;12680;57.804;12.190;2022-07-23T00:40:25;17.40;99.40
24522;DHT22;12680;57.804;12.190;2022-07-23T00:42:53;17.40;99.60
24522;DHT22;12680;57.804;12.190;2022-07-23T00:45:20;17.40;99.70
24522;DHT22;12680;57.804;12.190;2022-07-23T00:47:47;17.40;99.80
24522;DHT22;12680;57.804;12.190;2022-07-23T00:50:15;17.50;99.90
24522;DHT22;12680;57.804;12.190;2022-07-23T00:52:42;17.50;99.90
24522;DHT22;12680;57.804;12.190;2022-07-23T00:55:10;17.50;99.90
24522;DHT22;12680;57.804;12.190;2022-07-23T00:57:39;17.40;99.90
24522;DHT22;12680;57.804;12.190;2022-07-23T01:00:08;17.40;99.90
24522;DHT22;12680;57.804;12.190;2022-07-23T01:02:36;17.40;99.90
24522;DHT22;12680;57.804;12.190;2022-07-23T01:05:04;17.30;99.90
24522;DHT22;12680;57.804;12.190;2022-07-23T01:07:42;17.30;99.90
24522;DHT22;12680;57.804;12.190;2022-07-23T01:10:10;17.30;99.90
24522;DHT22;12680;57.804;12.190;2022-07-23T01:12:56;17.30;99.90
24522;DHT22;12680;57.804;12.190;2022-07-23T01:15:23;17.30;99.90
24522;DHT22;12680;57.804;12.190;2022-07-23T01:17:50;17.30;99.90
24522;DHT22;12680;57.804;12.190;2022-07-23T01:20:18;17.30;99.90
24522;DHT22;12680;57.804;12.190;2022-07-23T01:22:45;17.30;99.90
24522;DHT22;12680;57.804;12.190;2022-07-23T01:25:13;17.30;99.90
24522;DHT22;12680;57.804;12.190;2022-07-23T01:27:40;17.20;99.90
24522;DHT22;12680;57.804;12.190;2022-07-23T01:30:08;17.20;99.90
24522;DHT22;12680;57.804;12.190;2022-07-23T01:32:35;17.20;99.90
24522;DHT22;12680;57.804;12.190;2022-07-23T01:35:03;17.10;99.90
24522;DHT22;12680;57.804;12.190;2022-07-23T01:37:31;17.10;99.90
24522;DHT22;12680;57.804;12.190;2022-07-23T01:39:58;17.10;99.90
24522;DHT22;12680;57.804;12.190;2022-07-23T01:42:25;17.10;99.90
24522;DHT22;12680;57.804;12.190;2022-07-23T01:44:52;17.00;99.90
24522;DHT22;12680;57.804;12.190;2022-07-23T01:47:19;16.90;99.90
24522;DHT22;12680;57.804;12.190;2022-07-23T01:49:46;16.90;99.90
24522;DHT22;12680;57.804;12.190;2022-07-23T01:52:14;16.90;99.90
24522;DHT22;12680;57.804;12.190;2022-07-23T01:54:41;17.00;99.90
24522;DHT22;12680;57.804;12.190;2022-07-23T01:57:10;16.90;99.90
24522;DHT22;12680;57.804;12.190;2022-07-23T01:59:37;16.90;99.90
24522;DHT22;12680;57.804;12.190;2022-07-23T02:02:06;16.90;99.90
24522;DHT22;12680;57.804;12.190;2022-07-23T02:04:33;16.90;99.90
24522;DHT22;12680;57.804;12.190;2022-07-23T02:07:04;16.90;99.90
24522;DHT22;12680;57.804;12.190;2022-07-23T02:09:32;16.90;99.90
24522;DHT22;12680;57.804;12.190;2022-07-23T02:11:59;16.90;99.90
24522;DHT22;12680;57.804;12.190;2022-07-23T02:14:26;16.90;99.90
24522;DHT22;12680;57.804;12.190;2022-07-23T02:16:53;16.90;99.90
24522;DHT22;12680;57.804;12.190;2022-07-23T02:19:20;16.90;99.90
24522;DHT22;12680;57.804;12.190;2022-07-23T02:21:48;16.90;99.90
24522;DHT22;12680;57.804;12.190;2022-07-23T02:24:15;16.90;99.90
24522;DHT22;12680;57.804;12.190;2022-07-23T02:26:42;16.90;99.90
24522;DHT22;12680;57.804;12.190;2022-07-23T02:29:10;16.80;99.90
24522;DHT22;12680;57.804;12.190;2022-07-23T02:31:37;16.80;99.90
24522;DHT22;12680;57.804;12.190;2022-07-23T02:34:05;16.70;99.90
24522;DHT22;12680;57.804;12.190;2022-07-23T02:36:32;16.70;99.90
24522;DHT22;12680;57.804;12.190;2022-07-23T02:38:59;16.70;99.90
24522;DHT22;12680;57.804;12.190;2022-07-23T02:41:27;16.70;99.90
24522;DHT22;12680;57.804;12.190;2022-07-23T02:43:54;16.80;99.90
24522;DHT22;12680;57.804;12.190;2022-07-23T02:46:21;16.70;99.90
24522;DHT22;12680;57.804;12.190;2022-07-23T02:48:49;16.80;99.90
24522;DHT22;12680;57.804;12.190;2022-07-23T02:51:16;16.80;99.90
24522;DHT22;12680;57.804;12.190;2022-07-23T02:53:43;16.80;99.90
24522;DHT22;12680;57.804;12.190;2022-07-23T02:56:10;16.80;99.90
24522;DHT22;12680;57.804;12.190;2022-07-23T02:58:37;16.90;99.90
24522;DHT22;12680;57.804;12.190;2022-07-23T03:01:04;16.80;99.90
24522;DHT22;12680;57.804;12.190;2022-07-23T03:03:36;16.90;99.90
24522;DHT22;12680;57.804;12.190;2022-07-23T03:06:03;16.80;99.90
24522;DHT22;12680;57.804;12.190;2022-07-23T03:08:30;16.80;99.90
24522;DHT22;12680;57.804;12.190;2022-07-23T03:10:57;16.80;99.90
24522;DHT22;12680;57.804;12.190;2022-07-23T03:13:24;16.80;99.90
24522;DHT22;12680;57.804;12.190;2022-07-23T03:15:52;16.90;99.90
24522;DHT22;12680;57.804;12.190;2022-07-23T03:18:19;16.90;99.90
24522;DHT22;12680;57.804;12.190;2022-07-23T03:20:46;16.90;99.90
24522;DHT22;12680;57.804;12.190;2022-07-23T03:23:13;16.90;99.90
24522;DHT22;12680;57.804;12.190;2022-07-23T03:25:40;16.90;99.90
24522;DHT22;12680;57.804;12.190;2022-07-23T03:28:07;16.90;99.90
24522;DHT22;12680;57.804;12.190;2022-07-23T03:30:34;16.90;99.90
24522;DHT22;12680;57.804;12.190;2022-07-23T03:33:01;16.90;99.90
24522;DHT22;12680;57.804;12.190;2022-07-23T03:35:29;17.00;99.90
24522;DHT22;12680;57.804;12.190;2022-07-23T03:37:56;17.00;99.90
24522;DHT22;12680;57.804;12.190;2022-07-23T03:40:23;17.00;99.90
24522;DHT22;12680;57.804;12.190;2022-07-23T03:42:50;17.00;99.90
24522;DHT22;12680;57.804;12.190;2022-07-23T03:45:17;17.10;99.90
24522;DHT22;12680;57.804;12.190;2022-07-23T03:47:44;17.10;99.90
24522;DHT22;12680;57.804;12.190;2022-07-23T03:50:11;17.10;99.90
24522;DHT22;12680;57.804;12.190;2022-07-23T03:52:39;17.10;99.90
24522;DHT22;12680;57.804;12.190;2022-07-23T03:55:06;17.10;99.90
24522;DHT22;12680;57.804;12.190;2022-07-23T03:57:34;17.10;99.90
24522;DHT22;12680;57.804;12.190;2022-07-23T04:00:02;17.10;99.90
24522;DHT22;12680;57.804;12.190;2022-07-23T04:02:29;17.10;99.90
24522;DHT22;12680;57.804;12.190;2022-07-23T04:04:56;17.00;99.90
24522;DHT22;12680;57.804;12.190;2022-07-23T04:07:23;16.90;99.90
24522;DHT22;12680;57.804;12.190;2022-07-23T04:09:51;16.90;99.90
24522;DHT22;12680;57.804;12.190;2022-07-23T04:12:19;16.90;99.90
24522;DHT22;12680;57.804;12.190;2022-07-23T04:14:46;17.00;99.90
24522;DHT22;12680;57.804;12.190;2022-07-23T04:17:13;17.00;99.90
24522;DHT22;12680;57.804;12.190;2022-07-23T04:19:40;17.00;99.90
24522;DHT22;12680;57.804;12.190;2022-07-23T04:22:08;17.00;99.90
24522;DHT22;12680;57.804;12.190;2022-07-23T04:24:36;17.10;99.90
24522;DHT22;12680;57.804;12.190;2022-07-23T04:27:04;17.20;99.90
24522;DHT22;12680;57.804;12.190;2022-07-23T04:29:34;17.20;99.90
24522;DHT22;12680;57.804;12.190;2022-07-23T04:32:02;17.20;99.90
24522;DHT22;12680;57.804;12.190;2022-07-23T04:34:29;17.20;99.90
24522;DHT22;12680;57.804;12.190;2022-07-23T04:36:57;17.20;99.90
24522;DHT22;12680;57.804;12.190;2022-07-23T04:39:24;17.30;99.90
24522;DHT22;12680;57.804;12.190;2022-07-23T04:41:51;17.40;99.90
24522;DHT22;12680;57.804;12.190;2022-07-23T04:44:18;17.40;99.90
24522;DHT22;12680;57.804;12.190;2022-07-23T04:46:45;17.50;99.90
24522;DHT22;12680;57.804;12.190;2022-07-23T04:49:13;17.50;99.90
24522;DHT22;12680;57.804;12.190;2022-07-23T04:51:40;17.50;99.90
24522;DHT22;12680;57.804;12.190;2022-07-23T04:54:07;17.50;99.90
24522;DHT22;12680;57.804;12.190;2022-07-23T04:56:34;17.60;99.90
24522;DHT22;12680;57.804;12.190;2022-07-23T04:59:01;17.60;99.90
24522;DHT22;12680;57.804;12.190;2022-07-23T05:01:29;17.60;99.90
24522;DHT22;12680;57.804;12.190;2022-07-23T05:03:56;17.60;99.90
24522;DHT22;12680;57.804;12.190;2022-07-23T05:06:23;17.70;99.90
24522;DHT22;12680;57.804;12.190;2022-07-23T05:08:50;17.60;99.90
24522;DHT22;12680;57.804;12.190;2022-07-23T05:11:17;17.70;99.90
24522;DHT22;12680;57.804;12.190;2022-07-23T05:13:50;17.70;99.90
24522;DHT22;12680;57.804;12.190;2022-07-23T05:16:18;17.70;99.90
24522;DHT22;12680;57.804;12.190;2022-07-23T05:18:45;17.70;99.90
24522;DHT22;12680;57.804;12.190;2022-07-23T05:21:12;17.70;99.90
24522;DHT22;12680;57.804;12.190;2022-07-23T05:23:39;17.80;99.90
24522;DHT22;12680;57.804;12.190;2022-07-23T05:26:06;17.90;99.90
24522;DHT22;12680;57.804;12.190;2022-07-23T05:28:34;17.90;99.90
24522;DHT22;12680;57.804;12.190;2022-07-23T05:31:01;17.90;99.90
24522;DHT22;12680;57.804;12.190;2022-07-23T05:33:30;17.90;99.90
24522;DHT22;12680;57.804;12.190;2022-07-23T05:36:04;17.90;99.90
24522;DHT22;12680;57.804;12.190;2022-07-23T05:38:32;17.90;99.90
24522;DHT22;12680;57.804;12.190;2022-07-23T05:40:59;18.00;99.90
24522;DHT22;12680;57.804;12.190;2022-07-23T05:43:27;18.00;99.90
24522;DHT22;12680;57.804;12.190;2022-07-23T05:45:54;18.00;99.90
24522;DHT22;12680;57.804;12.190;2022-07-23T05:48:21;18.10;99.80
24522;DHT22;12680;57.804;12.190;2022-07-23T05:50:49;18.10;99.60
24522;DHT22;12680;57.804;12.190;2022-07-23T05:53:16;18.10;99.40
24522;DHT22;12680;57.804;12.190;2022-07-23T05:55:43;18.10;99.40
24522;DHT22;12680;57.804;12.190;2022-07-23T05:58:10;18.10;99.20
24522;DHT22;12680;57.804;12.190;2022-07-23T06:00:37;18.00;99.10
24522;DHT22;12680;57.804;12.190;2022-07-23T06:03:04;18.00;99.00
24522;DHT22;12680;57.804;12.190;2022-07-23T06:05:32;18.00;98.90
24522;DHT22;12680;57.804;12.190;2022-07-23T06:07:59;18.00;98.90
24522;DHT22;12680;57.804;12.190;2022-07-23T06:10:26;18.00;98.90
24522;DHT22;12680;57.804;12.190;2022-07-23T06:12:53;18.00;98.90
24522;DHT22;12680;57.804;12.190;2022-07-23T06:15:28;17.90;98.70
24522;DHT22;12680;57.804;12.190;2022-07-23T06:17:55;17.90;98.80
24522;DHT22;12680;57.804;12.190;2022-07-23T06:20:22;17.90;98.90
24522;DHT22;12680;57.804;12.190;2022-07-23T06:22:49;17.90;98.80
24522;DHT22;12680;57.804;12.190;2022-07-23T06:25:16;17.90;98.90
24522;DHT22;12680;57.804;12.190;2022-07-23T06:27:46;17.90;98.80
24522;DHT22;12680;57.804;12.190;2022-07-23T06:30:13;17.90;98.80
24522;DHT22;12680;57.804;12.190;2022-07-23T06:32:45;17.90;99.00
24522;DHT22;12680;57.804;12.190;2022-07-23T06:35:12;18.00;99.10
24522;DHT22;12680;57.804;12.190;2022-07-23T06:37:39;18.00;99.10
24522;DHT22;12680;57.804;12.190;2022-07-23T06:40:07;18.10;99.10
24522;DHT22;12680;57.804;12.190;2022-07-23T06:42:35;18.10;99.00
24522;DHT22;12680;57.804;12.190;2022-07-23T06:45:04;18.00;98.90
24522;DHT22;12680;57.804;12.190;2022-07-23T06:47:32;18.00;98.90
24522;DHT22;12680;57.804;12.190;2022-07-23T06:49:59;18.00;98.90
24522;DHT22;12680;57.804;12.190;2022-07-23T06:52:26;18.10;99.10
24522;DHT22;12680;57.804;12.190;2022-07-23T06:54:53;18.10;99.00
24522;DHT22;12680;57.804;12.190;2022-07-23T06:57:21;18.10;98.90
24522;DHT22;12680;57.804;12.190;2022-07-23T06:59:48;18.20;98.90
24522;DHT22;12680;57.804;12.190;2022-07-23T07:02:21;18.30;99.00
24522;DHT22;12680;57.804;12.190;2022-07-23T07:04:50;18.30;98.80
24522;DHT22;12680;57.804;12.190;2022-07-23T07:07:17;18.40;98.70
24522;DHT22;12680;57.804;12.190;2022-07-23T07:09:44;18.40;98.60
24522;DHT22;12680;57.804;12.190;2022-07-23T07:12:14;18.30;98.50
24522;DHT22;12680;57.804;12.190;2022-07-23T07:14:41;18.40;98.50
24522;DHT22;12680;57.804;12.190;2022-07-23T07:17:09;18.40;98.40
24522;DHT22;12680;57.804;12.190;2022-07-23T07:19:37;18.40;98.30
24522;DHT22;12680;57.804;12.190;2022-07-23T07:22:04;18.50;98.30
24522;DHT22;12680;57.804;12.190;2022-07-23T07:24:32;18.50;98.30
24522;DHT22;12680;57.804;12.190;2022-07-23T07:27:04;18.50;98.20
24522;DHT22;12680;57.804;12.190;2022-07-23T07:29:31;18.60;98.10
24522;DHT22;12680;57.804;12.190;2022-07-23T07:31:58;18.60;98.00
24522;DHT22;12680;57.804;12.190;2022-07-23T07:34:25;18.60;98.00
24522;DHT22;12680;57.804;12.190;2022-07-23T07:36:52;18.70;97.90
24522;DHT22;12680;57.804;12.190;2022-07-23T07:39:19;18.70;97.80
24522;DHT22;12680;57.804;12.190;2022-07-23T07:41:46;18.70;97.60
24522;DHT22;12680;57.804;12.190;2022-07-23T07:44:14;18.70;97.60
24522;DHT22;12680;57.804;12.190;2022-07-23T07:46:41;18.70;97.60
24522;DHT22;12680;57.804;12.190;2022-07-23T07:49:08;18.80;97.80
24522;DHT22;12680;57.804;12.190;2022-07-23T07:51:42;18.90;97.70
24522;DHT22;12680;57.804;12.190;2022-07-23T07:54:11;19.00;97.60
24522;DHT22;12680;57.804;12.190;2022-07-23T07:56:39;19.00;97.40
24522;DHT22;12680;57.804;12.190;2022-07-23T07:59:06;19.10;97.40
24522;DHT22;12680;57.804;12.190;2022-07-23T08:01:33;19.10;97.40
24522;DHT22;12680;57.804;12.190;2022-07-23T08:04:01;19.20;97.30
24522;DHT22;12680;57.804;12.190;2022-07-23T08:06:29;19.30;97.20
24522;DHT22;12680;57.804;12.190;2022-07-23T08:08:56;19.30;97.10
24522;DHT22;12680;57.804;12.190;2022-07-23T08:11:23;19.30;96.90
24522;DHT22;12680;57.804;12.190;2022-07-23T08:13:50;19.30;96.80
24522;DHT22;12680;57.804;12.190;2022-07-23T08:16:17;19.30;96.80
24522;DHT22;12680;57.804;12.190;2022-07-23T08:18:45;19.30;96.90
24522;DHT22;12680;57.804;12.190;2022-07-23T08:21:13;19.40;96.90
24522;DHT22;12680;57.804;12.190;2022-07-23T08:23:40;19.40;96.80
24522;DHT22;12680;57.804;12.190;2022-07-23T08:26:07;19.50;96.70
24522;DHT22;12680;57.804;12.190;2022-07-23T08:28:34;19.50;96.60
24522;DHT22;12680;57.804;12.190;2022-07-23T08:31:02;19.50;96.70
24522;DHT22;12680;57.804;12.190;2022-07-23T08:33:29;19.60;96.50
24522;DHT22;12680;57.804;12.190;2022-07-23T08:36:01;19.70;96.40
24522;DHT22;12680;57.804;12.190;2022-07-23T08:38:30;19.80;96.30
24522;DHT22;12680;57.804;12.190;2022-07-23T08:40:58;19.90;96.20
24522;DHT22;12680;57.804;12.190;2022-07-23T08:43:27;20.00;96.10
24522;DHT22;12680;57.804;12.190;2022-07-23T08:45:56;20.10;96.00
24522;DHT22;12680;57.804;12.190;2022-07-23T08:48:27;20.20;95.80
24522;DHT22;12680;57.804;12.190;2022-07-23T08:51:00;20.10;95.60
24522;DHT22;12680;57.804;12.190;2022-07-23T08:53:29;20.10;95.50
24522;DHT22;12680;57.804;12.190;2022-07-23T08:55:59;20.00;95.40
24522;DHT22;12680;57.804;12.190;2022-07-23T08:58:29;19.90;95.30
24522;DHT22;12680;57.804;12.190;2022-07-23T09:00:57;19.90;95.40
24522;DHT22;12680;57.804;12.190;2022-07-23T09:03:34;20.00;95.40
24522;DHT22;12680;57.804;12.190;2022-07-23T09:06:02;20.00;95.40
24522;DHT22;12680;57.804;12.190;2022-07-23T09:08:40;20.20;95.40
24522;DHT22;12680;57.804;12.190;2022-07-23T09:11:10;20.30;95.20
24522;DHT22;12680;57.804;12.190;2022-07-23T09:14:01;20.40;95.10
24522;DHT22;12680;57.804;12.190;2022-07-23T09:16:31;20.50;95.00
24522;DHT22;12680;57.804;12.190;2022-07-23T09:19:02;20.60;95.00
24522;DHT22;12680;57.804;12.190;2022-07-23T09:21:30;20.60;94.50
24522;DHT22;12680;57.804;12.190;2022-07-23T09:26:42;20.60;94.40
24522;DHT22;12680;57.804;12.190;2022-07-23T09:29:17;20.60;94.50
24522;DHT22;12680;57.804;12.190;2022-07-23T09:31:58;20.60;94.30
24522;DHT22;12680;57.804;12.190;2022-07-23T09:34:34;20.60;94.20
24522;DHT22;12680;57.804;12.190;2022-07-23T09:37:11;20.60;94.30
24522;DHT22;12680;57.804;12.190;2022-07-23T09:39:40;20.80;94.40
24522;DHT22;12680;57.804;12.190;2022-07-23T09:42:19;20.80;94.20
24522;DHT22;12680;57.804;12.190;2022-07-23T09:44:53;20.80;94.10
24522;DHT22;12680;57.804;12.190;2022-07-23T09:47:22;20.80;94.10
24522;DHT22;12680;57.804;12.190;2022-07-23T09:50:00;20.90;94.10
24522;DHT22;12680;57.804;12.190;2022-07-23T09:52:29;20.90;93.90
24522;DHT22;12680;57.804;12.190;2022-07-23T09:55:04;21.00;93.90
24522;DHT22;12680;57.804;12.190;2022-07-23T09:57:32;21.00;93.80
24522;DHT22;12680;57.804;12.190;2022-07-23T10:00:07;21.00;93.70
24522;DHT22;12680;57.804;12.190;2022-07-23T10:02:36;21.00;93.50
24522;DHT22;12680;57.804;12.190;2022-07-23T10:05:05;21.00;93.50
24522;DHT22;12680;57.804;12.190;2022-07-23T10:07:36;21.00;93.50
24522;DHT22;12680;57.804;12.190;2022-07-23T10:10:05;21.00;93.60
24522;DHT22;12680;57.804;12.190;2022-07-23T10:12:32;21.00;93.50
24522;DHT22;12680;57.804;12.190;2022-07-23T10:15:06;20.90;93.50
24522;DHT22;12680;57.804;12.190;2022-07-23T10:17:35;20.80;93.40
24522;DHT22;12680;57.804;12.190;2022-07-23T10:20:03;20.80;93.60
24522;DHT22;12680;57.804;12.190;2022-07-23T10:22:33;20.80;93.80
24522;DHT22;12680;57.804;12.190;2022-07-23T10:31:02;20.80;93.60
24522;DHT22;12680;57.804;12.190;2022-07-23T10:36:58;20.80;93.70
24522;DHT22;12680;57.804;12.190;2022-07-23T10:39:33;20.90;93.70
24522;DHT22;12680;57.804;12.190;2022-07-23T10:42:15;21.00;93.80
24522;DHT22;12680;57.804;12.190;2022-07-23T10:44:45;21.20;93.70
24522;DHT22;12680;57.804;12.190;2022-07-23T10:47:25;21.40;93.60
24522;DHT22;12680;57.804;12.190;2022-07-23T10:50:27;21.50;93.40
24522;DHT22;12680;57.804;12.190;2022-07-23T10:58:03;21.40;93.00
24522;DHT22;12680;57.804;12.190;2022-07-23T11:00:35;21.40;93.00
24522;DHT22;12680;57.804;12.190;2022-07-23T11:03:05;21.40;92.90
24522;DHT22;12680;57.804;12.190;2022-07-23T11:05:44;21.30;92.80
24522;DHT22;12680;57.804;12.190;2022-07-23T11:24:11;21.30;92.70
24522;DHT22;12680;57.804;12.190;2022-07-23T11:26:55;21.30;92.70
24522;DHT22;12680;57.804;12.190;2022-07-23T11:32:18;21.20;92.80
24522;DHT22;12680;57.804;12.190;2022-07-23T11:34:47;21.30;92.70
24522;DHT22;12680;57.804;12.190;2022-07-23T11:40:06;21.40;92.80
24522;DHT22;12680;57.804;12.190;2022-07-23T11:42:37;21.40;92.60
24522;DHT22;12680;57.804;12.190;2022-07-23T11:45:07;21.40;92.60
24522;DHT22;12680;57.804;12.190;2022-07-23T11:47:35;21.40;92.60
24522;DHT22;12680;57.804;12.190;2022-07-23T11:50:05;21.40;92.40
24522;DHT22;12680;57.804;12.190;2022-07-23T11:52:34;21.20;92.30
24522;DHT22;12680;57.804;12.190;2022-07-23T11:55:06;21.20;92.50
24522;DHT22;12680;57.804;12.190;2022-07-23T11:57:39;21.10;92.60
24522;DHT22;12680;57.804;12.190;2022-07-23T12:00:13;21.00;92.50
24522;DHT22;12680;57.804;12.190;2022-07-23T12:02:47;21.00;92.80
24522;DHT22;12680;57.804;12.190;2022-07-23T12:05:18;20.90;92.80
24522;DHT22;12680;57.804;12.190;2022-07-23T12:07:48;20.90;92.90
24522;DHT22;12680;57.804;12.190;2022-07-23T12:10:26;21.00;93.10
24522;DHT22;12680;57.804;12.190;2022-07-23T12:12:59;21.10;93.20
24522;DHT22;12680;57.804;12.190;2022-07-23T12:15:29;21.30;93.20
24522;DHT22;12680;57.804;12.190;2022-07-23T12:18:00;21.30;93.00
24522;DHT22;12680;57.804;12.190;2022-07-23T12:20:39;21.30;92.90
24522;DHT22;12680;57.804;12.190;2022-07-23T12:23:07;21.30;93.00
24522;DHT22;12680;57.804;12.190;2022-07-23T12:25:37;21.30;93.10
24522;DHT22;12680;57.804;12.190;2022-07-23T12:30:52;21.40;93.20
24522;DHT22;12680;57.804;12.190;2022-07-23T12:33:32;21.40;93.20
24522;DHT22;12680;57.804;12.190;2022-07-23T12:36:06;21.60;93.00
24522;DHT22;12680;57.804;12.190;2022-07-23T12:38:42;21.60;92.80
24522;DHT22;12680;57.804;12.190;2022-07-23T12:41:10;21.60;92.80
24522;DHT22;12680;57.804;12.190;2022-07-23T12:43:39;21.80;93.00
24522;DHT22;12680;57.804;12.190;2022-07-23T12:46:09;22.00;92.80
24522;DHT22;12680;57.804;12.190;2022-07-23T12:48:53;22.10;92.60
24522;DHT22;12680;57.804;12.190;2022-07-23T12:51:22;22.00;92.30
24522;DHT22;12680;57.804;12.190;2022-07-23T12:54:09;22.00;92.40
24522;DHT22;12680;57.804;12.190;2022-07-23T12:56:38;21.90;92.20
24522;DHT22;12680;57.804;12.190;2022-07-23T12:59:14;21.70;92.20
24522;DHT22;12680;57.804;12.190;2022-07-23T13:01:53;21.70;92.40
24522;DHT22;12680;57.804;12.190;2022-07-23T13:04:22;21.70;92.60
24522;DHT22;12680;57.804;12.190;2022-07-23T13:06:52;21.80;92.60
24522;DHT22;12680;57.804;12.190;2022-07-23T13:09:25;21.70;92.30
24522;DHT22;12680;57.804;12.190;2022-07-23T13:11:58;21.50;92.30
24522;DHT22;12680;57.804;12.190;2022-07-23T13:14:26;21.50;92.40
24522;DHT22;12680;57.804;12.190;2022-07-23T13:16:55;21.40;92.40
24522;DHT22;12680;57.804;12.190;2022-07-23T13:19:25;21.40;92.60
24522;DHT22;12680;57.804;12.190;2022-07-23T13:21:54;21.50;92.90
24522;DHT22;12680;57.804;12.190;2022-07-23T13:24:21;21.60;92.70
24522;DHT22;12680;57.804;12.190;2022-07-23T13:26:49;21.60;92.60
24522;DHT22;12680;57.804;12.190;2022-07-23T13:29:19;21.70;92.60
24522;DHT22;12680;57.804;12.190;2022-07-23T13:31:46;21.60;92.50
24522;DHT22;12680;57.804;12.190;2022-07-23T13:34:15;21.60;92.40
24522;DHT22;12680;57.804;12.190;2022-07-23T13:36:42;21.60;92.40
24522;DHT22;12680;57.804;12.190;2022-07-23T13:39:10;21.60;92.40
24522;DHT22;12680;57.804;12.190;2022-07-23T13:41:38;21.50;92.40
24522;DHT22;12680;57.804;12.190;2022-07-23T13:44:05;21.50;92.50
24522;DHT22;12680;57.804;12.190;2022-07-23T13:46:34;21.60;92.70
24522;DHT22;12680;57.804;12.190;2022-07-23T13:49:02;21.60;92.60
24522;DHT22;12680;57.804;12.190;2022-07-23T13:51:32;21.70;92.60
24522;DHT22;12680;57.804;12.190;2022-07-23T13:53:59;21.80;92.60
24522;DHT22;12680;57.804;12.190;2022-07-23T13:56:29;21.80;92.50
24522;DHT22;12680;57.804;12.190;2022-07-23T13:58:56;21.80;92.40
24522;DHT22;12680;57.804;12.190;2022-07-23T14:01:23;21.70;92.30
24522;DHT22;12680;57.804;12.190;2022-07-23T14:03:51;21.60;92.20
24522;DHT22;12680;57.804;12.190;2022-07-23T14:06:19;21.50;92.30
24522;DHT22;12680;57.804;12.190;2022-07-23T14:08:58;21.40;92.30
24522;DHT22;12680;57.804;12.190;2022-07-23T14:11:26;21.30;92.40
24522;DHT22;12680;57.804;12.190;2022-07-23T14:14:14;21.20;92.50
24522;DHT22;12680;57.804;12.190;2022-07-23T14:16:42;21.10;92.60
24522;DHT22;12680;57.804;12.190;2022-07-23T14:19:10;21.00;92.70
24522;DHT22;12680;57.804;12.190;2022-07-23T14:21:37;20.90;92.80
24522;DHT22;12680;57.804;12.190;2022-07-23T14:24:04;20.90;93.00
24522;DHT22;12680;57.804;12.190;2022-07-23T14:26:32;20.90;93.10
24522;DHT22;12680;57.804;12.190;2022-07-23T14:28:59;20.90;93.20
24522;DHT22;12680;57.804;12.190;2022-07-23T14:31:27;21.00;93.30
24522;DHT22;12680;57.804;12.190;2022-07-23T14:33:55;21.10;93.40
24522;DHT22;12680;57.804;12.190;2022-07-23T14:36:22;21.20;93.30
24522;DHT22;12680;57.804;12.190;2022-07-23T14:38:49;21.30;93.30
24522;DHT22;12680;57.804;12.190;2022-07-23T14:41:16;21.40;93.60
24522;DHT22;12680;57.804;12.190;2022-07-23T14:43:44;21.40;93.20
24522;DHT22;12680;57.804;12.190;2022-07-23T14:46:13;21.50;93.20
24522;DHT22;12680;57.804;12.190;2022-07-23T14:48:40;21.60;93.10
24522;DHT22;12680;57.804;12.190;2022-07-23T14:51:08;21.70;93.10
24522;DHT22;12680;57.804;12.190;2022-07-23T14:53:35;21.80;93.00
24522;DHT22;12680;57.804;12.190;2022-07-23T14:56:02;21.80;92.80
24522;DHT22;12680;57.804;12.190;2022-07-23T14:58:30;21.90;92.70
24522;DHT22;12680;57.804;12.190;2022-07-23T15:00:57;21.90;92.50
24522;DHT22;12680;57.804;12.190;2022-07-23T15:03:24;21.80;92.30
24522;DHT22;12680;57.804;12.190;2022-07-23T15:06:09;21.80;92.20
24522;DHT22;12680;57.804;12.190;2022-07-23T15:08:36;21.80;92.20
24522;DHT22;12680;57.804;12.190;2022-07-23T15:11:03;21.80;92.10
24522;DHT22;12680;57.804;12.190;2022-07-23T15:13:33;21.80;92.00
24522;DHT22;12680;57.804;12.190;2022-07-23T15:16:01;21.80;92.10
24522;DHT22;12680;57.804;12.190;2022-07-23T15:18:32;21.90;92.20
24522;DHT22;12680;57.804;12.190;2022-07-23T15:20:59;22.00;92.20
24522;DHT22;12680;57.804;12.190;2022-07-23T15:23:27;22.10;92.10
24522;DHT22;12680;57.804;12.190;2022-07-23T15:25:57;22.10;92.00
24522;DHT22;12680;57.804;12.190;2022-07-23T15:28:24;22.00;91.80
24522;DHT22;12680;57.804;12.190;2022-07-23T15:30:52;21.80;91.80
24522;DHT22;12680;57.804;12.190;2022-07-23T15:33:20;21.70;91.90
24522;DHT22;12680;57.804;12.190;2022-07-23T15:35:48;21.60;91.90
24522;DHT22;12680;57.804;12.190;2022-07-23T15:38:16;21.50;92.00
24522;DHT22;12680;57.804;12.190;2022-07-23T15:40:53;21.50;92.10
24522;DHT22;12680;57.804;12.190;2022-07-23T15:43:22;21.40;92.00
24522;DHT22;12680;57.804;12.190;2022-07-23T15:45:52;21.40;92.00
24522;DHT22;12680;57.804;12.190;2022-07-23T15:48:20;21.40;92.10
24522;DHT22;12680;57.804;12.190;2022-07-23T15:50:48;21.40;92.10
24522;DHT22;12680;57.804;12.190;2022-07-23T15:53:16;21.40;92.10
24522;DHT22;12680;57.804;12.190;2022-07-23T15:55:43;21.50;92.10
24522;DHT22;12680;57.804;12.190;2022-07-23T15:58:13;21.50;92.10
24522;DHT22;12680;57.804;12.190;2022-07-23T16:00:40;21.60;92.00
24522;DHT22;12680;57.804;12.190;2022-07-23T16:03:12;21.60;92.00
24522;DHT22;12680;57.804;12.190;2022-07-23T16:05:43;21.50;92.00
24522;DHT22;12680;57.804;12.190;2022-07-23T16:08:12;21.50;92.00